sensor_id;sensor_type;location;lat;lon;timestamp;pressure;altitude;pressure_sealevel;temperature
79756;BMP280;69239;50.678;12.280;2024-02-21T00:01:22;98257.81;;;7.67
79756;BMP280;69239;50.678;12.280;2024-02-21T00:03:47;98263.59;;;7.69
79756;BMP280;69239;50.678;12.280;2024-02-21T00:06:13;98264.34;;;7.69
79756;BMP280;69239;50.678;12.280;2024-02-21T00:08:38;98259.91;;;7.70
79756;BMP280;69239;50.678;12.280;2024-02-21T00:11:03;98258.38;;;7.69
79756;BMP280;69239;50.678;12.280;2024-02-21T00:13:28;98248.63;;;7.69
79756;BMP280;69239;50.678;12.280;2024-02-21T00:15:54;98248.41;;;7.66
79756;BMP280;69239;50.678;12.280;2024-02-21T00:18:19;98234.00;;;7.68
79756;BMP280;69239;50.678;12.280;2024-02-21T00:20:45;98234.47;;;7.70
79756;BMP280;69239;50.678;12.280;2024-02-21T00:23:10;98221.09;;;7.72
79756;BMP280;69239;50.678;12.280;2024-02-21T00:25:35;98233.41;;;7.71
79756;BMP280;69239;50.678;12.280;2024-02-21T00:28:00;98234.22;;;7.72
79756;BMP280;69239;50.678;12.280;2024-02-21T00:30:26;98241.28;;;7.71
79756;BMP280;69239;50.678;12.280;2024-02-21T00:32:51;98230.81;;;7.71
79756;BMP280;69239;50.678;12.280;2024-02-21T00:35:16;98218.50;;;7.67
79756;BMP280;69239;50.678;12.280;2024-02-21T00:37:41;98224.53;;;7.67
79756;BMP280;69239;50.678;12.280;2024-02-21T00:40:07;98224.03;;;7.65
79756;BMP280;69239;50.678;12.280;2024-02-21T00:42:32;98224.53;;;7.67
79756;BMP280;69239;50.678;12.280;2024-02-21T00:44:58;98224.03;;;7.65
79756;BMP280;69239;50.678;12.280;2024-02-21T00:47:23;98209.34;;;7.64
79756;BMP280;69239;50.678;12.280;2024-02-21T00:49:48;98209.91;;;7.61
79756;BMP280;69239;50.678;12.280;2024-02-21T00:52:13;98203.63;;;7.57
79756;BMP280;69239;50.678;12.280;2024-02-21T00:54:39;98203.63;;;7.57
79756;BMP280;69239;50.678;12.280;2024-02-21T00:57:04;98200.50;;;7.55
79756;BMP280;69239;50.678;12.280;2024-02-21T00:59:29;98192.09;;;7.53
79756;BMP280;69239;50.678;12.280;2024-02-21T01:01:55;98203.63;;;7.52
79756;BMP280;69239;50.678;12.280;2024-02-21T01:04:20;98190.53;;;7.52
79756;BMP280;69239;50.678;12.280;2024-02-21T01:06:45;98190.03;;;7.50
79756;BMP280;69239;50.678;12.280;2024-02-21T01:09:11;98188.72;;;7.47
79756;BMP280;69239;50.678;12.280;2024-02-21T01:11:36;98186.63;;;7.49
79756;BMP280;69239;50.678;12.280;2024-02-21T01:14:02;98179.03;;;7.48
79756;BMP280;69239;50.678;12.280;2024-02-21T01:16:27;98169.09;;;7.45
79756;BMP280;69239;50.678;12.280;2024-02-21T01:18:52;98167.78;;;7.47
79756;BMP280;69239;50.678;12.280;2024-02-21T01:21:17;98158.09;;;7.48
79756;BMP280;69239;50.678;12.280;2024-02-21T01:23:43;98162.25;;;7.49
79756;BMP280;69239;50.678;12.280;2024-02-21T01:26:08;98157.81;;;7.49
79756;BMP280;69239;50.678;12.280;2024-02-21T01:28:34;98160.44;;;7.49
79756;BMP280;69239;50.678;12.280;2024-02-21T01:30:59;98159.09;;;7.52
79756;BMP280;69239;50.678;12.280;2024-02-21T01:33:24;98150.72;;;7.50
79756;BMP280;69239;50.678;12.280;2024-02-21T01:35:50;98152.81;;;7.53
79756;BMP280;69239;50.678;12.280;2024-02-21T01:38:15;98152.56;;;7.55
79756;BMP280;69239;50.678;12.280;2024-02-21T01:40:40;98153.34;;;7.55
79756;BMP280;69239;50.678;12.280;2024-02-21T01:43:15;98142.06;;;7.55
79756;BMP280;69239;50.678;12.280;2024-02-21T01:45:41;98148.09;;;7.55
79756;BMP280;69239;50.678;12.280;2024-02-21T01:48:06;98150.19;;;7.53
79756;BMP280;69239;50.678;12.280;2024-02-21T01:50:32;98144.44;;;7.56
79756;BMP280;69239;50.678;12.280;2024-02-21T01:52:59;98145.22;;;7.57
79756;BMP280;69239;50.678;12.280;2024-02-21T01:55:24;98138.41;;;7.56
79756;BMP280;69239;50.678;12.280;2024-02-21T01:57:49;98138.69;;;7.54
79756;BMP280;69239;50.678;12.280;2024-02-21T02:00:16;98136.56;;;7.56
79756;BMP280;69239;50.678;12.280;2024-02-21T02:02:41;98130.28;;;7.57
79756;BMP280;69239;50.678;12.280;2024-02-21T02:05:07;98135.50;;;7.57
79756;BMP280;69239;50.678;12.280;2024-02-21T02:07:33;98120.34;;;7.54
79756;BMP280;69239;50.678;12.280;2024-02-21T02:09:58;98125.03;;;7.57
79756;BMP280;69239;50.678;12.280;2024-02-21T02:12:23;98125.03;;;7.57
79756;BMP280;69239;50.678;12.280;2024-02-21T02:15:02;98114.03;;;7.55
79756;BMP280;69239;50.678;12.280;2024-02-21T02:17:30;98116.88;;;7.59
79756;BMP280;69239;50.678;12.280;2024-02-21T02:19:57;98112.41;;;7.59
79756;BMP280;69239;50.678;12.280;2024-02-21T02:22:28;98106.38;;;7.59
79756;BMP280;69239;50.678;12.280;2024-02-21T02:24:54;98109.00;;;7.59
79756;BMP280;69239;50.678;12.280;2024-02-21T02:27:19;98102.97;;;7.58
79756;BMP280;69239;50.678;12.280;2024-02-21T02:29:44;98103.50;;;7.60
79756;BMP280;69239;50.678;12.280;2024-02-21T02:32:10;98102.72;;;7.60
79756;BMP280;69239;50.678;12.280;2024-02-21T02:34:35;98093.00;;;7.60
79756;BMP280;69239;50.678;12.280;2024-02-21T02:37:00;98089.69;;;7.55
79756;BMP280;69239;50.678;12.280;2024-02-21T02:39:25;98089.09;;;7.58
79756;BMP280;69239;50.678;12.280;2024-02-21T02:41:51;98085.44;;;7.59
79756;BMP280;69239;50.678;12.280;2024-02-21T02:44:16;98082.03;;;7.58
79756;BMP280;69239;50.678;12.280;2024-02-21T02:46:41;98080.50;;;7.57
79756;BMP280;69239;50.678;12.280;2024-02-21T02:49:07;98082.03;;;7.58
79756;BMP280;69239;50.678;12.280;2024-02-21T02:51:32;98073.97;;;7.55
79756;BMP280;69239;50.678;12.280;2024-02-21T02:53:59;98066.34;;;7.53
79756;BMP280;69239;50.678;12.280;2024-02-21T02:56:24;98076.31;;;7.56
79756;BMP280;69239;50.678;12.280;2024-02-21T02:58:49;98072.63;;;7.57
79756;BMP280;69239;50.678;12.280;2024-02-21T03:01:14;98067.88;;;7.59
79756;BMP280;69239;50.678;12.280;2024-02-21T03:03:40;98068.66;;;7.60
79756;BMP280;69239;50.678;12.280;2024-02-21T03:06:05;98061.56;;;7.60
79756;BMP280;69239;50.678;12.280;2024-02-21T03:08:30;98056.59;;;7.59
79756;BMP280;69239;50.678;12.280;2024-02-21T03:10:56;98064.47;;;7.59
79756;BMP280;69239;50.678;12.280;2024-02-21T03:13:21;98068.41;;;7.61
79756;BMP280;69239;50.678;12.280;2024-02-21T03:15:46;98072.06;;;7.60
79756;BMP280;69239;50.678;12.280;2024-02-21T03:18:11;98069.19;;;7.62
79756;BMP280;69239;50.678;12.280;2024-02-21T03:20:37;98079.38;;;7.63
79756;BMP280;69239;50.678;12.280;2024-02-21T03:23:02;98076.78;;;7.63
79756;BMP280;69239;50.678;12.280;2024-02-21T03:25:27;98071.53;;;7.63
79756;BMP280;69239;50.678;12.280;2024-02-21T03:27:52;98077.53;;;7.64
79756;BMP280;69239;50.678;12.280;2024-02-21T03:30:18;98068.41;;;7.61
79756;BMP280;69239;50.678;12.280;2024-02-21T03:32:43;98075.22;;;7.62
79756;BMP280;69239;50.678;12.280;2024-02-21T03:35:08;98070.75;;;7.63
79756;BMP280;69239;50.678;12.280;2024-02-21T03:37:34;98071.53;;;7.63
79756;BMP280;69239;50.678;12.280;2024-02-21T03:39:59;98063.66;;;7.63
79756;BMP280;69239;50.678;12.280;2024-02-21T03:42:24;98056.31;;;7.60
79756;BMP280;69239;50.678;12.280;2024-02-21T03:44:50;98056.31;;;7.60
79756;BMP280;69239;50.678;12.280;2024-02-21T03:47:15;98058.94;;;7.60
79756;BMP280;69239;50.678;12.280;2024-02-21T03:49:40;98068.41;;;7.61
79756;BMP280;69239;50.678;12.280;2024-02-21T03:52:05;98068.66;;;7.60
79756;BMP280;69239;50.678;12.280;2024-02-21T03:54:31;98066.81;;;7.60
79756;BMP280;69239;50.678;12.280;2024-02-21T03:56:56;98069.19;;;7.62
79756;BMP280;69239;50.678;12.280;2024-02-21T03:59:22;98062.16;;;7.57
79756;BMP280;69239;50.678;12.280;2024-02-21T04:01:51;98065.25;;;7.59
79756;BMP280;69239;50.678;12.280;2024-02-21T04:04:17;98062.41;;;7.56
79756;BMP280;69239;50.678;12.280;2024-02-21T04:06:49;98070.00;;;7.57
79756;BMP280;69239;50.678;12.280;2024-02-21T04:09:15;98069.50;;;7.55
79756;BMP280;69239;50.678;12.280;2024-02-21T04:11:41;98074.19;;;7.53
79756;BMP280;69239;50.678;12.280;2024-02-21T04:14:06;98072.13;;;7.50
79756;BMP280;69239;50.678;12.280;2024-02-21T04:16:32;98070.56;;;7.49
79756;BMP280;69239;50.678;12.280;2024-02-21T04:18:57;98064.53;;;7.48
79756;BMP280;69239;50.678;12.280;2024-02-21T04:21:23;98060.09;;;7.49
79756;BMP280;69239;50.678;12.280;2024-02-21T04:23:48;98055.41;;;7.46
79756;BMP280;69239;50.678;12.280;2024-02-21T04:26:13;98054.63;;;7.45
79756;BMP280;69239;50.678;12.280;2024-02-21T04:28:38;98055.41;;;7.46
79756;BMP280;69239;50.678;12.280;2024-02-21T04:31:04;98048.03;;;7.48
79756;BMP280;69239;50.678;12.280;2024-02-21T04:33:29;98046.22;;;7.48
79756;BMP280;69239;50.678;12.280;2024-02-21T04:35:54;98036.28;;;7.45
79756;BMP280;69239;50.678;12.280;2024-02-21T04:38:20;98040.19;;;7.48
79756;BMP280;69239;50.678;12.280;2024-02-21T04:40:45;98041.25;;;7.47
79756;BMP280;69239;50.678;12.280;2024-02-21T04:43:10;98037.56;;;7.48
79756;BMP280;69239;50.678;12.280;2024-02-21T04:45:35;98029.19;;;7.46
79756;BMP280;69239;50.678;12.280;2024-02-21T04:48:01;98033.94;;;7.44
79756;BMP280;69239;50.678;12.280;2024-02-21T04:50:26;98031.31;;;7.44
79756;BMP280;69239;50.678;12.280;2024-02-21T04:52:52;98021.13;;;7.42
79756;BMP280;69239;50.678;12.280;2024-02-21T04:55:17;98019.56;;;7.41
79756;BMP280;69239;50.678;12.280;2024-02-21T04:57:42;98013.81;;;7.39
79756;BMP280;69239;50.678;12.280;2024-02-21T05:00:08;98016.66;;;7.38
79756;BMP280;69239;50.678;12.280;2024-02-21T05:02:34;98012.75;;;7.35
79756;BMP280;69239;50.678;12.280;2024-02-21T05:04:59;98003.66;;;7.33
79756;BMP280;69239;50.678;12.280;2024-02-21T05:07:24;98001.28;;;7.31
79756;BMP280;69239;50.678;12.280;2024-02-21T05:09:50;98006.00;;;7.29
79756;BMP280;69239;50.678;12.280;2024-02-21T05:12:15;97998.69;;;7.26
79756;BMP280;69239;50.678;12.280;2024-02-21T05:14:41;97994.25;;;7.27
79756;BMP280;69239;50.678;12.280;2024-02-21T05:17:06;97984.00;;;7.25
79756;BMP280;69239;50.678;12.280;2024-02-21T05:19:31;97980.63;;;7.25
79756;BMP280;69239;50.678;12.280;2024-02-21T05:21:57;97975.19;;;7.21
79756;BMP280;69239;50.678;12.280;2024-02-21T05:24:22;97983.22;;;7.25
79756;BMP280;69239;50.678;12.280;2024-02-21T05:26:47;97978.56;;;7.21
79756;BMP280;69239;50.678;12.280;2024-02-21T05:29:12;97989.53;;;7.23
79756;BMP280;69239;50.678;12.280;2024-02-21T05:34:21;97977.50;;;7.22
79756;BMP280;69239;50.678;12.280;2024-02-21T05:36:46;97973.03;;;7.23
79756;BMP280;69239;50.678;12.280;2024-02-21T05:39:13;97962.03;;;7.26
79756;BMP280;69239;50.678;12.280;2024-02-21T05:41:38;97959.16;;;7.22
79756;BMP280;69239;50.678;12.280;2024-02-21T05:44:04;97967.28;;;7.26
79756;BMP280;69239;50.678;12.280;2024-02-21T05:46:29;97965.44;;;7.27
79756;BMP280;69239;50.678;12.280;2024-02-21T05:48:54;97959.66;;;7.25
79756;BMP280;69239;50.678;12.280;2024-02-21T05:51:19;97950.78;;;7.26
79756;BMP280;69239;50.678;12.280;2024-02-21T05:53:45;97958.34;;;7.27
79756;BMP280;69239;50.678;12.280;2024-02-21T05:56:14;97955.47;;;7.29
79756;BMP280;69239;50.678;12.280;2024-02-21T05:58:39;97954.41;;;7.30
79756;BMP280;69239;50.678;12.280;2024-02-21T06:01:05;97949.69;;;7.32
79756;BMP280;69239;50.678;12.280;2024-02-21T06:03:34;97939.72;;;7.34
79756;BMP280;69239;50.678;12.280;2024-02-21T06:06:01;97935.25;;;7.34
79756;BMP280;69239;50.678;12.280;2024-02-21T06:08:26;97924.50;;;7.36
79756;BMP280;69239;50.678;12.280;2024-02-21T06:10:52;97925.56;;;7.35
79756;BMP280;69239;50.678;12.280;2024-02-21T06:13:20;97919.84;;;7.33
79756;BMP280;69239;50.678;12.280;2024-02-21T06:15:47;97914.59;;;7.33
79756;BMP280;69239;50.678;12.280;2024-02-21T06:18:12;97925.28;;;7.36
79756;BMP280;69239;50.678;12.280;2024-02-21T06:20:37;97917.13;;;7.38
79756;BMP280;69239;50.678;12.280;2024-02-21T06:23:05;97920.53;;;7.38
79756;BMP280;69239;50.678;12.280;2024-02-21T06:25:30;97921.31;;;7.39
79756;BMP280;69239;50.678;12.280;2024-02-21T06:27:55;97925.53;;;7.40
79756;BMP280;69239;50.678;12.280;2024-02-21T06:30:21;97911.09;;;7.42
79756;BMP280;69239;50.678;12.280;2024-02-21T06:32:47;97918.41;;;7.45
79756;BMP280;69239;50.678;12.280;2024-02-21T06:35:13;97913.94;;;7.46
79756;BMP280;69239;50.678;12.280;2024-02-21T06:37:38;97915.00;;;7.45
79756;BMP280;69239;50.678;12.280;2024-02-21T06:40:04;97919.75;;;7.43
79756;BMP280;69239;50.678;12.280;2024-02-21T06:42:30;97911.66;;;7.39
79756;BMP280;69239;50.678;12.280;2024-02-21T06:44:58;97920.25;;;7.45
79756;BMP280;69239;50.678;12.280;2024-02-21T06:47:23;97927.03;;;7.46
79756;BMP280;69239;50.678;12.280;2024-02-21T06:49:50;97916.56;;;7.46
79756;BMP280;69239;50.678;12.280;2024-02-21T06:52:18;97919.75;;;7.43
79756;BMP280;69239;50.678;12.280;2024-02-21T06:54:47;97932.34;;;7.41
79756;BMP280;69239;50.678;12.280;2024-02-21T06:57:13;97933.06;;;7.46
79756;BMP280;69239;50.678;12.280;2024-02-21T06:59:40;97924.91;;;7.48
79756;BMP280;69239;50.678;12.280;2024-02-21T07:02:05;97929.09;;;7.49
79756;BMP280;69239;50.678;12.280;2024-02-21T07:04:30;97933.56;;;7.48
79756;BMP280;69239;50.678;12.280;2024-02-21T07:06:55;97940.38;;;7.49
79756;BMP280;69239;50.678;12.280;2024-02-21T07:09:21;97939.31;;;7.50
79756;BMP280;69239;50.678;12.280;2024-02-21T07:11:46;97947.16;;;7.56
79756;BMP280;69239;50.678;12.280;2024-02-21T07:14:11;97934.81;;;7.56
79756;BMP280;69239;50.678;12.280;2024-02-21T07:16:40;97960.91;;;7.66
79756;BMP280;69239;50.678;12.280;2024-02-21T07:19:05;97957.00;;;7.69
79756;BMP280;69239;50.678;12.280;2024-02-21T07:21:30;97970.22;;;7.82
79756;BMP280;69239;50.678;12.280;2024-02-21T07:23:57;97971.56;;;8.04
79756;BMP280;69239;50.678;12.280;2024-02-21T07:26:23;97978.72;;;8.22
79756;BMP280;69239;50.678;12.280;2024-02-21T07:28:48;97972.91;;;8.25
79756;BMP280;69239;50.678;12.280;2024-02-21T07:31:13;97970.53;;;8.24
79756;BMP280;69239;50.678;12.280;2024-02-21T07:33:39;97974.03;;;8.19
79756;BMP280;69239;50.678;12.280;2024-02-21T07:36:09;97976.94;;;8.18
79756;BMP280;69239;50.678;12.280;2024-02-21T07:38:35;97982.06;;;8.28
79756;BMP280;69239;50.678;12.280;2024-02-21T07:41:00;97956.56;;;8.33
79756;BMP280;69239;50.678;12.280;2024-02-21T07:43:25;97942.59;;;8.38
79756;BMP280;69239;50.678;12.280;2024-02-21T07:45:52;97937.06;;;8.39
79756;BMP280;69239;50.678;12.280;2024-02-21T07:48:18;97941.78;;;8.37
79756;BMP280;69239;50.678;12.280;2024-02-21T07:50:44;97942.84;;;8.36
79756;BMP280;69239;50.678;12.280;2024-02-21T07:53:09;97943.44;;;8.33
79756;BMP280;69239;50.678;12.280;2024-02-21T07:55:34;97948.88;;;8.37
79756;BMP280;69239;50.678;12.280;2024-02-21T07:58:00;97946.06;;;8.33
79756;BMP280;69239;50.678;12.280;2024-02-21T08:00:25;97922.47;;;8.33
79756;BMP280;69239;50.678;12.280;2024-02-21T08:02:50;97917.22;;;8.33
79756;BMP280;69239;50.678;12.280;2024-02-21T08:05:16;97908.84;;;8.31
79756;BMP280;69239;50.678;12.280;2024-02-21T08:07:41;97908.06;;;8.31
79756;BMP280;69239;50.678;12.280;2024-02-21T08:10:07;97903.00;;;8.34
79756;BMP280;69239;50.678;12.280;2024-02-21T08:12:33;97889.31;;;8.37
79756;BMP280;69239;50.678;12.280;2024-02-21T08:14:58;97906.88;;;8.61
79756;BMP280;69239;50.678;12.280;2024-02-21T08:17:23;97907.38;;;8.82
79756;BMP280;69239;50.678;12.280;2024-02-21T08:19:48;97905.88;;;9.08
79756;BMP280;69239;50.678;12.280;2024-02-21T08:22:14;97899.00;;;9.58
79756;BMP280;69239;50.678;12.280;2024-02-21T08:24:40;97901.22;;;9.92
79756;BMP280;69239;50.678;12.280;2024-02-21T08:27:05;97901.88;;;10.25
79756;BMP280;69239;50.678;12.280;2024-02-21T08:29:31;97901.81;;;10.98
79756;BMP280;69239;50.678;12.280;2024-02-21T08:31:56;97905.06;;;12.82
79756;BMP280;69239;50.678;12.280;2024-02-21T08:34:21;97900.72;;;15.12
79756;BMP280;69239;50.678;12.280;2024-02-21T08:36:46;97905.59;;;16.98
79756;BMP280;69239;50.678;12.280;2024-02-21T08:39:12;97910.97;;;18.22
79756;BMP280;69239;50.678;12.280;2024-02-21T08:41:41;97924.66;;;19.61
79756;BMP280;69239;50.678;12.280;2024-02-21T08:44:07;97912.41;;;20.24
79756;BMP280;69239;50.678;12.280;2024-02-21T08:46:32;97918.31;;;19.43
79756;BMP280;69239;50.678;12.280;2024-02-21T08:48:57;97918.25;;;18.06
79756;BMP280;69239;50.678;12.280;2024-02-21T08:51:22;97926.59;;;16.87
79756;BMP280;69239;50.678;12.280;2024-02-21T08:53:48;97930.25;;;15.83
79756;BMP280;69239;50.678;12.280;2024-02-21T08:56:14;97945.78;;;15.00
79756;BMP280;69239;50.678;12.280;2024-02-21T08:58:40;97932.31;;;14.39
79756;BMP280;69239;50.678;12.280;2024-02-21T09:01:06;97932.19;;;13.94
79756;BMP280;69239;50.678;12.280;2024-02-21T09:03:35;97923.16;;;13.57
79756;BMP280;69239;50.678;12.280;2024-02-21T09:06:00;97925.94;;;13.22
79756;BMP280;69239;50.678;12.280;2024-02-21T09:08:26;97928.06;;;12.91
79756;BMP280;69239;50.678;12.280;2024-02-21T09:10:52;97918.44;;;12.60
79756;BMP280;69239;50.678;12.280;2024-02-21T09:13:17;97915.66;;;12.48
79756;BMP280;69239;50.678;12.280;2024-02-21T09:15:43;97917.06;;;12.54
79756;BMP280;69239;50.678;12.280;2024-02-21T09:18:08;97913.47;;;12.67
79756;BMP280;69239;50.678;12.280;2024-02-21T09:20:33;97917.16;;;12.92
79756;BMP280;69239;50.678;12.280;2024-02-21T09:22:58;97915.34;;;13.31
79756;BMP280;69239;50.678;12.280;2024-02-21T09:25:24;97920.06;;;13.54
79756;BMP280;69239;50.678;12.280;2024-02-21T09:27:49;97911.03;;;13.85
79756;BMP280;69239;50.678;12.280;2024-02-21T09:30:16;97921.25;;;13.95
79756;BMP280;69239;50.678;12.280;2024-02-21T09:32:41;97900.84;;;14.70
79756;BMP280;69239;50.678;12.280;2024-02-21T09:35:07;97891.13;;;15.07
79756;BMP280;69239;50.678;12.280;2024-02-21T09:37:32;97886.63;;;14.75
79756;BMP280;69239;50.678;12.280;2024-02-21T09:40:00;97883.19;;;14.41
79756;BMP280;69239;50.678;12.280;2024-02-21T09:42:52;97888.44;;;14.50
79756;BMP280;69239;50.678;12.280;2024-02-21T09:45:23;97883.91;;;14.96
79756;BMP280;69239;50.678;12.280;2024-02-21T09:50:34;97883.72;;;15.49
79756;BMP280;69239;50.678;12.280;2024-02-21T09:53:01;97884.78;;;15.85
79756;BMP280;69239;50.678;12.280;2024-02-21T09:55:29;97880.72;;;16.31
79756;BMP280;69239;50.678;12.280;2024-02-21T09:57:57;97862.03;;;17.03
79756;BMP280;69239;50.678;12.280;2024-02-21T10:00:23;97858.19;;;17.35
79756;BMP280;69239;50.678;12.280;2024-02-21T10:02:54;97863.03;;;17.84
79756;BMP280;69239;50.678;12.280;2024-02-21T10:05:19;97863.44;;;18.05
79756;BMP280;69239;50.678;12.280;2024-02-21T10:07:44;97866.09;;;18.05
79756;BMP280;69239;50.678;12.280;2024-02-21T10:10:10;97857.75;;;17.68
79756;BMP280;69239;50.678;12.280;2024-02-21T10:12:36;97862.13;;;17.41
79756;BMP280;69239;50.678;12.280;2024-02-21T10:15:06;97856.16;;;17.13
79756;BMP280;69239;50.678;12.280;2024-02-21T10:17:35;97856.56;;;16.96
79756;BMP280;69239;50.678;12.280;2024-02-21T10:20:11;97861.88;;;16.96
79756;BMP280;69239;50.678;12.280;2024-02-21T10:22:40;97858.94;;;16.85
79756;BMP280;69239;50.678;12.280;2024-02-21T10:25:07;97851.22;;;16.64
79756;BMP280;69239;50.678;12.280;2024-02-21T10:28:06;97852.66;;;16.62
79756;BMP280;69239;50.678;12.280;2024-02-21T10:30:32;97840.50;;;16.61
79756;BMP280;69239;50.678;12.280;2024-02-21T10:33:00;97834.06;;;16.62
79756;BMP280;69239;50.678;12.280;2024-02-21T10:35:46;97839.91;;;16.67
79756;BMP280;69239;50.678;12.280;2024-02-21T10:38:12;97840.16;;;16.62
79756;BMP280;69239;50.678;12.280;2024-02-21T10:40:38;97843.81;;;16.73
79756;BMP280;69239;50.678;12.280;2024-02-21T10:43:10;97847.88;;;16.83
79756;BMP280;69239;50.678;12.280;2024-02-21T10:45:37;97842.22;;;16.84
79756;BMP280;69239;50.678;12.280;2024-02-21T10:50:36;97827.88;;;16.89
79756;BMP280;69239;50.678;12.280;2024-02-21T10:56:16;97821.19;;;16.48
79756;BMP280;69239;50.678;12.280;2024-02-21T10:59:05;97819.09;;;16.26
79756;BMP280;69239;50.678;12.280;2024-02-21T11:01:31;97821.22;;;16.20
79756;BMP280;69239;50.678;12.280;2024-02-21T11:04:03;97801.41;;;16.17
79756;BMP280;69239;50.678;12.280;2024-02-21T11:06:29;97800.66;;;16.17
79756;BMP280;69239;50.678;12.280;2024-02-21T11:09:05;97790.88;;;16.05
79756;BMP280;69239;50.678;12.280;2024-02-21T11:11:38;97787.50;;;16.08
79756;BMP280;69239;50.678;12.280;2024-02-21T11:14:11;97773.31;;;16.16
79756;BMP280;69239;50.678;12.280;2024-02-21T11:16:38;97771.97;;;16.22
79756;BMP280;69239;50.678;12.280;2024-02-21T11:19:08;97769.16;;;16.47
79756;BMP280;69239;50.678;12.280;2024-02-21T11:21:35;97764.50;;;16.59
79756;BMP280;69239;50.678;12.280;2024-02-21T11:24:01;97756.25;;;16.96
79756;BMP280;69239;50.678;12.280;2024-02-21T11:26:30;97758.34;;;17.41
79756;BMP280;69239;50.678;12.280;2024-02-21T11:29:01;97747.09;;;17.90
79756;BMP280;69239;50.678;12.280;2024-02-21T11:31:38;97743.25;;;18.59
79756;BMP280;69239;50.678;12.280;2024-02-21T11:34:05;97741.22;;;19.35
79756;BMP280;69239;50.678;12.280;2024-02-21T11:36:33;97738.19;;;20.18
79756;BMP280;69239;50.678;12.280;2024-02-21T11:39:07;97732.19;;;20.35
79756;BMP280;69239;50.678;12.280;2024-02-21T11:41:34;97731.97;;;20.58
79756;BMP280;69239;50.678;12.280;2024-02-21T11:44:00;97729.31;;;20.62
79756;BMP280;69239;50.678;12.280;2024-02-21T11:46:25;97725.03;;;21.26
79756;BMP280;69239;50.678;12.280;2024-02-21T11:48:51;97725.47;;;22.02
79756;BMP280;69239;50.678;12.280;2024-02-21T11:51:30;97703.84;;;22.81
79756;BMP280;69239;50.678;12.280;2024-02-21T11:53:55;97697.00;;;23.42
79756;BMP280;69239;50.678;12.280;2024-02-21T11:56:21;97697.06;;;23.31
79756;BMP280;69239;50.678;12.280;2024-02-21T11:58:47;97688.06;;;22.90
79756;BMP280;69239;50.678;12.280;2024-02-21T12:01:13;97678.69;;;22.39
79756;BMP280;69239;50.678;12.280;2024-02-21T12:03:39;97676.38;;;22.34
79756;BMP280;69239;50.678;12.280;2024-02-21T12:06:06;97672.94;;;22.41
79756;BMP280;69239;50.678;12.280;2024-02-21T12:08:44;97671.44;;;22.25
79756;BMP280;69239;50.678;12.280;2024-02-21T12:11:22;97670.69;;;22.25
79756;BMP280;69239;50.678;12.280;2024-02-21T12:14:02;97664.53;;;22.24
79756;BMP280;69239;50.678;12.280;2024-02-21T12:16:29;97662.19;;;22.37
79756;BMP280;69239;50.678;12.280;2024-02-21T12:18:56;97646.63;;;22.94
79756;BMP280;69239;50.678;12.280;2024-02-21T12:21:25;97642.38;;;23.97
79756;BMP280;69239;50.678;12.280;2024-02-21T12:23:53;97642.09;;;24.52
79756;BMP280;69239;50.678;12.280;2024-02-21T12:26:18;97639.63;;;24.00
79756;BMP280;69239;50.678;12.280;2024-02-21T12:28:43;97642.31;;;24.00
79756;BMP280;69239;50.678;12.280;2024-02-21T12:31:09;97639.53;;;24.11
79756;BMP280;69239;50.678;12.280;2024-02-21T12:33:34;97640.56;;;23.86
79756;BMP280;69239;50.678;12.280;2024-02-21T12:36:00;97629.13;;;23.75
79756;BMP280;69239;50.678;12.280;2024-02-21T12:38:25;97624.56;;;23.69
79756;BMP280;69239;50.678;12.280;2024-02-21T12:40:51;97625.13;;;22.91
79756;BMP280;69239;50.678;12.280;2024-02-21T12:43:16;97618.72;;;23.33
79756;BMP280;69239;50.678;12.280;2024-02-21T12:45:42;97603.53;;;24.31
79756;BMP280;69239;50.678;12.280;2024-02-21T12:48:08;97599.97;;;24.68
79756;BMP280;69239;50.678;12.280;2024-02-21T12:50:33;97590.81;;;24.89
79756;BMP280;69239;50.678;12.280;2024-02-21T12:52:58;97587.44;;;24.55
79756;BMP280;69239;50.678;12.280;2024-02-21T12:55:24;97589.66;;;24.63
79756;BMP280;69239;50.678;12.280;2024-02-21T12:57:49;97581.34;;;24.81
79756;BMP280;69239;50.678;12.280;2024-02-21T13:00:16;97573.19;;;25.31
79756;BMP280;69239;50.678;12.280;2024-02-21T13:02:41;97567.81;;;25.74
79756;BMP280;69239;50.678;12.280;2024-02-21T13:05:07;97570.84;;;25.33
79756;BMP280;69239;50.678;12.280;2024-02-21T13:07:33;97573.16;;;24.88
79756;BMP280;69239;50.678;12.280;2024-02-21T13:09:58;97561.72;;;24.54
79756;BMP280;69239;50.678;12.280;2024-02-21T13:12:25;97560.44;;;24.62
79756;BMP280;69239;50.678;12.280;2024-02-21T13:14:53;97560.59;;;24.78
79756;BMP280;69239;50.678;12.280;2024-02-21T13:17:19;97550.66;;;24.98
79756;BMP280;69239;50.678;12.280;2024-02-21T13:19:44;97551.59;;;24.88
79756;BMP280;69239;50.678;12.280;2024-02-21T13:22:10;97544.13;;;24.15
79756;BMP280;69239;50.678;12.280;2024-02-21T13:24:35;97531.88;;;24.14
79756;BMP280;69239;50.678;12.280;2024-02-21T13:27:00;97534.72;;;24.30
79756;BMP280;69239;50.678;12.280;2024-02-21T13:29:25;97516.16;;;24.40
79756;BMP280;69239;50.678;12.280;2024-02-21T13:31:50;97532.34;;;24.06
79756;BMP280;69239;50.678;12.280;2024-02-21T13:34:16;97517.97;;;23.51
79756;BMP280;69239;50.678;12.280;2024-02-21T13:36:42;97515.16;;;23.25
79756;BMP280;69239;50.678;12.280;2024-02-21T13:39:10;97513.91;;;23.36
79756;BMP280;69239;50.678;12.280;2024-02-21T13:41:41;97513.19;;;23.70
79756;BMP280;69239;50.678;12.280;2024-02-21T13:44:07;97508.31;;;23.58
79756;BMP280;69239;50.678;12.280;2024-02-21T13:46:32;97503.31;;;23.60
79756;BMP280;69239;50.678;12.280;2024-02-21T13:49:03;97502.78;;;24.02
79756;BMP280;69239;50.678;12.280;2024-02-21T13:51:33;97509.28;;;24.35
79756;BMP280;69239;50.678;12.280;2024-02-21T13:54:01;97501.16;;;24.12
79756;BMP280;69239;50.678;12.280;2024-02-21T13:56:26;97505.88;;;24.04
79756;BMP280;69239;50.678;12.280;2024-02-21T13:58:51;97499.38;;;23.68
79756;BMP280;69239;50.678;12.280;2024-02-21T14:01:17;97501.63;;;23.35
79756;BMP280;69239;50.678;12.280;2024-02-21T14:03:42;97494.28;;;23.05
79756;BMP280;69239;50.678;12.280;2024-02-21T14:06:07;97501.75;;;22.76
79756;BMP280;69239;50.678;12.280;2024-02-21T14:08:32;97496.69;;;22.27
79756;BMP280;69239;50.678;12.280;2024-02-21T14:10:59;97489.53;;;22.02